Portada
METAR-TAF:

METAR-TAF

Aeroports :

Conceição do Araguaia, Pará, Brasil

latitud: 08-15S, longitud: 049-17W, altitud: 157 m

Observació

L'informe es va fer fa 48 minuts, a les 18:00 UTC
Vent 16 kt del Est
Temperatura 27°C
Humitat 74%
Pressió 1009 hPa
Visibilitat 10 km o més
Cel ennuvolat a una alçada de 1500 ft
Escasses núvols a una alçada de 2500 ft, Cumulonimbus.
Cel cobert a una alçada de 9000 ft
tempesta

METAR: SBAA 211800Z 10016KT 9999 TS BKN015 FEW025CB OVC090 27/22 Q1009

Hora: 16:48 (18:48 UTC)


TAF: manca

Observacions i pronòstics meteorològics de més de 4000 aeroports (METAR i TAF).

Les estacions disponibles són els punts grocs i vermells al mapa.

Posi el ratolí al punt desitjat per veure el nom de l'estació.

Feu clic per veure les observacions i els pronòstics meteorològics.

Per canviar el mapa: feu clic els botons verds amb una creu de color negre per apropar; al botó verd amb un guió per allunyar la imatge; o en les fletxes verdes per a mapes adjacents.


METAR-TAF: